createdAt,value
2022-08-07T00:02:36.951Z,22.20
2022-08-07T00:05:04.215Z,22.30
2022-08-07T00:07:36.866Z,22.40
2022-08-07T00:10:26.193Z,22.20
2022-08-07T00:12:57.891Z,22.20
2022-08-07T00:15:38.268Z,22.20
2022-08-07T00:18:18.731Z,22.20
2022-08-07T00:20:51.272Z,22.20
2022-08-07T00:23:21.802Z,22.20
2022-08-07T00:25:58.244Z,22.30
2022-08-07T00:28:31.805Z,22.30
2022-08-07T00:31:06.166Z,22.20
2022-08-07T00:33:35.728Z,22.10
2022-08-07T00:36:05.294Z,22.20
2022-08-07T00:38:34.848Z,22.10
2022-08-07T00:41:05.623Z,22.10
2022-08-07T00:44:01.275Z,22.10
2022-08-07T00:46:27.549Z,22.10
2022-08-07T00:48:55.516Z,22.10
2022-08-07T00:51:23.411Z,22.00
2022-08-07T00:53:55.995Z,22.00
2022-08-07T00:56:30.172Z,21.90
2022-08-07T00:59:02.977Z,21.80
2022-08-07T01:01:41.561Z,21.90
2022-08-07T01:04:24.797Z,21.90
2022-08-07T01:06:53.818Z,21.90
2022-08-07T01:10:04.608Z,21.90
2022-08-07T01:12:29.610Z,21.90
2022-08-07T01:15:01.423Z,21.90
2022-08-07T01:17:32.152Z,21.90
2022-08-07T01:20:06.519Z,21.70
2022-08-07T01:22:46.798Z,21.70
2022-08-07T01:25:53.722Z,21.70
2022-08-07T01:28:14.586Z,21.60
2022-08-07T01:30:43.617Z,21.60
2022-08-07T01:33:13.530Z,21.60
2022-08-07T01:35:53.296Z,21.50
2022-08-07T01:38:25.539Z,21.60
2022-08-07T01:40:56.087Z,21.60
2022-08-07T01:43:26.057Z,21.60
2022-08-07T01:45:55.437Z,21.60
2022-08-07T01:48:29.602Z,21.60
2022-08-07T01:51:24.331Z,21.60
2022-08-07T01:54:12.659Z,21.50
2022-08-07T01:56:49.763Z,21.60
2022-08-07T01:59:24.156Z,21.40
2022-08-07T02:02:06.731Z,21.30
2022-08-07T02:04:56.440Z,21.20
2022-08-07T02:07:44.953Z,21.10
2022-08-07T02:10:24.744Z,21.10
2022-08-07T02:12:54.638Z,21.10
2022-08-07T02:15:26.340Z,21.10
2022-08-07T02:17:57.066Z,21.10
2022-08-07T02:20:26.048Z,21.10
2022-08-07T02:23:01.708Z,21.10
2022-08-07T02:26:31.857Z,21.20
2022-08-07T02:28:25.479Z,21.20
2022-08-07T02:30:56.121Z,21.20
2022-08-07T02:33:42.166Z,21.30
2022-08-07T02:36:28.441Z,21.30
2022-08-07T02:39:01.707Z,21.40
2022-08-07T02:41:39.991Z,21.30
2022-08-07T02:44:16.209Z,21.30
2022-08-07T02:46:52.496Z,21.20
2022-08-07T02:49:56.400Z,21.20
2022-08-07T02:52:14.805Z,21.20
2022-08-07T02:54:44.276Z,21.20
2022-08-07T02:57:22.264Z,21.10
2022-08-07T03:00:00.868Z,21.10
2022-08-07T03:02:29.152Z,21.00
2022-08-07T03:04:59.715Z,21.10
2022-08-07T03:07:58.872Z,21.00
2022-08-07T03:10:23.464Z,21.10
2022-08-07T03:12:53.710Z,21.10
2022-08-07T03:15:30.256Z,21.50
2022-08-07T03:18:12.572Z,21.10
2022-08-07T03:20:48.249Z,21.10
2022-08-07T03:23:19.156Z,21.10
2022-08-07T03:25:50.785Z,21.10
2022-08-07T03:28:38.190Z,21.10
2022-08-07T03:31:24.425Z,21.10
2022-08-07T03:33:58.173Z,21.10
2022-08-07T03:36:29.817Z,21.00
2022-08-07T03:39:05.853Z,21.00
2022-08-07T03:41:42.207Z,21.00
2022-08-07T03:44:17.330Z,21.00
2022-08-07T03:47:12.986Z,21.00
2022-08-07T03:49:51.989Z,21.00
2022-08-07T03:52:27.051Z,21.00
2022-08-07T03:55:06.296Z,21.00
2022-08-07T03:59:05.300Z,21.00
2022-08-07T04:00:30.314Z,20.90
2022-08-07T04:03:04.418Z,20.90
2022-08-07T04:05:41.072Z,21.00
2022-08-07T04:08:12.446Z,20.90
2022-08-07T04:10:42.230Z,20.90
2022-08-07T04:13:15.525Z,20.90
2022-08-07T04:15:49.345Z,20.80
2022-08-07T04:18:56.559Z,20.70
2022-08-07T04:21:08.510Z,20.60
2022-08-07T04:23:43.724Z,20.50
2022-08-07T04:26:28.486Z,20.40
2022-08-07T04:28:56.661Z,20.30
2022-08-07T04:31:38.915Z,20.30
2022-08-07T04:34:17.349Z,20.10
2022-08-07T04:36:55.660Z,20.00
2022-08-07T04:39:25.973Z,20.00
2022-08-07T04:41:54.628Z,20.00
2022-08-07T04:44:22.743Z,20.10
2022-08-07T04:47:07.646Z,20.00
2022-08-07T04:49:57.505Z,20.10
2022-08-07T04:52:37.739Z,20.20
2022-08-07T04:58:13.821Z,20.20
2022-08-07T04:58:49.788Z,20.20
2022-08-07T05:01:21.301Z,20.30
2022-08-07T05:04:09.074Z,20.40
2022-08-07T05:06:54.632Z,20.40
2022-08-07T05:09:45.589Z,20.50
2022-08-07T05:12:26.909Z,20.50
2022-08-07T05:15:15.963Z,20.60
2022-08-07T05:17:55.735Z,20.60
2022-08-07T05:20:35.841Z,20.70
2022-08-07T05:23:15.479Z,20.70
2022-08-07T05:26:11.737Z,20.70
2022-08-07T05:28:40.487Z,20.80
2022-08-07T05:31:16.731Z,20.80
2022-08-07T05:34:01.568Z,20.80
2022-08-07T05:36:36.057Z,21.10
2022-08-07T05:40:17.949Z,20.90
2022-08-07T05:42:01.714Z,20.90
2022-08-07T05:44:34.942Z,21.00
2022-08-07T05:47:18.100Z,21.00
2022-08-07T05:49:50.292Z,21.00
2022-08-07T05:52:20.604Z,21.10
2022-08-07T05:54:58.758Z,21.00
2022-08-07T05:57:37.915Z,21.10
2022-08-07T06:00:15.981Z,21.10
2022-08-07T06:02:49.342Z,21.20
2022-08-07T06:05:28.119Z,21.20
2022-08-07T06:08:14.726Z,21.20
2022-08-07T06:10:51.394Z,21.20
2022-08-07T06:14:10.996Z,21.30
2022-08-07T06:16:13.446Z,21.30
2022-08-07T06:18:51.945Z,21.30
2022-08-07T06:22:14.460Z,21.30
2022-08-07T06:24:45.742Z,21.40
2022-08-07T06:27:03.559Z,21.40
2022-08-07T06:29:33.890Z,21.40
2022-08-07T06:32:01.994Z,21.40
2022-08-07T06:34:30.506Z,21.50
2022-08-07T06:36:58.624Z,21.50
2022-08-07T06:40:16.590Z,21.60
2022-08-07T06:42:32.832Z,21.60
2022-08-07T06:45:04.845Z,21.70
2022-08-07T06:47:48.209Z,21.70
2022-08-07T06:50:21.023Z,21.80
2022-08-07T06:52:54.141Z,21.80
2022-08-07T06:55:47.971Z,21.90
2022-08-07T06:58:24.591Z,21.90
2022-08-07T07:00:57.459Z,21.90
2022-08-07T07:03:39.802Z,22.00
2022-08-07T07:06:13.606Z,22.00
2022-08-07T07:08:51.916Z,22.00
2022-08-07T07:12:08.282Z,22.10
2022-08-07T07:14:09.968Z,22.20
2022-08-07T07:16:49.749Z,22.10
2022-08-07T07:19:58.050Z,22.20
2022-08-07T07:22:36.787Z,22.30
2022-08-07T07:25:14.173Z,22.30
2022-08-07T07:28:03.320Z,22.40
2022-08-07T07:30:39.594Z,22.40
2022-08-07T07:33:11.709Z,22.40
2022-08-07T07:36:04.018Z,22.50
2022-08-07T07:38:33.525Z,22.60
2022-08-07T07:41:08.794Z,22.60
2022-08-07T07:43:47.983Z,22.70
2022-08-07T07:46:54.281Z,22.70
2022-08-07T07:50:35.903Z,22.70
2022-08-07T07:52:16.117Z,22.80
2022-08-07T07:54:51.487Z,22.90
2022-08-07T07:57:51.742Z,22.90
2022-08-07T08:00:21.195Z,22.90
2022-08-07T08:03:05.752Z,22.90
2022-08-07T08:05:54.495Z,23.00
2022-08-07T08:08:34.395Z,23.00
2022-08-07T08:11:05.963Z,23.10
2022-08-07T08:13:53.040Z,23.20
2022-08-07T08:16:30.949Z,23.20
2022-08-07T08:19:17.550Z,23.20
2022-08-07T08:22:09.839Z,23.30
2022-08-07T08:25:18.705Z,23.30
2022-08-07T08:27:56.996Z,23.30
2022-08-07T08:30:30.028Z,23.30
2022-08-07T08:33:05.279Z,23.40
2022-08-07T08:35:47.219Z,23.50
2022-08-07T08:38:29.265Z,23.50
2022-08-07T08:41:06.552Z,23.50
2022-08-07T08:43:56.082Z,23.60
2022-08-07T08:46:38.233Z,23.70
2022-08-07T08:49:13.982Z,23.70
2022-08-07T08:52:12.707Z,23.80
2022-08-07T08:54:50.616Z,23.90
2022-08-07T08:57:30.140Z,24.00
2022-08-07T09:00:03.314Z,24.00
2022-08-07T09:02:40.490Z,24.10
2022-08-07T09:05:36.876Z,24.00
2022-08-07T09:08:24.343Z,24.10
2022-08-07T09:11:08.268Z,24.20
2022-08-07T09:13:44.337Z,24.10
2022-08-07T09:16:29.792Z,24.10
2022-08-07T09:19:53.438Z,24.10
2022-08-07T09:24:28.944Z,24.10
2022-08-07T09:25:17.505Z,24.20
2022-08-07T09:27:59.985Z,24.40
2022-08-07T09:30:41.736Z,24.50
2022-08-07T09:33:52.937Z,24.50
2022-08-07T09:36:19.903Z,24.40
2022-08-07T09:38:59.264Z,24.60
2022-08-07T09:41:59.020Z,24.60
2022-08-07T09:44:58.434Z,24.70
2022-08-07T09:48:00.341Z,24.70
2022-08-07T09:50:36.375Z,24.80
2022-08-07T09:53:08.414Z,24.80
2022-08-07T09:56:05.398Z,24.90
2022-08-07T09:58:57.369Z,25.00
2022-08-07T10:01:51.354Z,25.00
2022-08-07T10:04:38.288Z,25.00
2022-08-07T10:07:31.465Z,25.00
2022-08-07T10:10:43.636Z,25.00
2022-08-07T10:14:01.225Z,25.10
2022-08-07T10:17:01.799Z,25.20
2022-08-07T10:19:44.163Z,25.30
2022-08-07T10:22:37.708Z,25.30
2022-08-07T10:25:20.743Z,25.40
2022-08-07T10:28:09.275Z,25.50
2022-08-07T10:30:59.287Z,25.20
2022-08-07T10:34:06.462Z,25.30
2022-08-07T10:36:58.304Z,25.40
2022-08-07T10:39:41.661Z,25.60
2022-08-07T10:42:36.443Z,25.60
2022-08-07T10:45:17.712Z,25.50
2022-08-07T10:48:03.277Z,25.60
2022-08-07T10:50:37.864Z,25.70
2022-08-07T10:53:10.892Z,25.80
2022-08-07T10:55:51.020Z,25.70
2022-08-07T10:58:46.157Z,25.70
2022-08-07T11:01:51.563Z,25.90
2022-08-07T11:04:42.120Z,26.00
2022-08-07T11:07:24.773Z,26.00
2022-08-07T11:10:19.933Z,26.00
2022-08-07T11:13:01.959Z,26.10
2022-08-07T11:15:37.763Z,26.20
2022-08-07T11:18:15.444Z,26.40
2022-08-07T11:20:57.790Z,26.40
2022-08-07T11:23:38.720Z,26.50
2022-08-07T11:26:13.372Z,26.40
2022-08-07T11:28:55.704Z,26.50
2022-08-07T11:31:35.086Z,26.50
2022-08-07T11:34:13.057Z,26.50
2022-08-07T11:37:00.261Z,26.50
2022-08-07T11:40:00.328Z,26.60
2022-08-07T11:42:40.562Z,26.70
2022-08-07T11:45:35.683Z,26.70
2022-08-07T11:48:29.115Z,26.70
2022-08-07T11:51:44.512Z,26.60
2022-08-07T11:54:37.270Z,26.70
2022-08-07T11:57:59.861Z,26.60
2022-08-07T12:00:19.530Z,26.70
2022-08-07T12:03:45.265Z,26.60
2022-08-07T12:06:37.511Z,26.50
2022-08-07T12:09:16.482Z,26.60
2022-08-07T12:12:10.576Z,26.50
2022-08-07T12:15:01.244Z,26.70
2022-08-07T12:17:39.670Z,26.70
2022-08-07T12:20:29.640Z,27.00
2022-08-07T12:23:17.912Z,27.00
2022-08-07T12:26:21.984Z,27.00
2022-08-07T12:28:53.973Z,27.00
2022-08-07T12:31:52.349Z,27.10
2022-08-07T12:34:27.873Z,27.10
2022-08-07T12:36:58.892Z,27.20
2022-08-07T12:39:43.305Z,27.30
2022-08-07T12:42:13.996Z,27.30
2022-08-07T12:44:48.639Z,27.30
2022-08-07T12:47:32.484Z,27.10
2022-08-07T12:50:39.147Z,27.10
2022-08-07T12:53:17.808Z,27.00
2022-08-07T12:56:02.342Z,27.20
2022-08-07T12:58:37.461Z,27.30
2022-08-07T13:01:20.123Z,27.40
2022-08-07T13:04:13.681Z,27.40
2022-08-07T13:08:14.210Z,27.50
2022-08-07T13:11:06.830Z,27.70
2022-08-07T13:14:00.069Z,27.80
2022-08-07T13:16:37.170Z,27.70
2022-08-07T13:19:21.902Z,27.70
2022-08-07T13:22:19.957Z,27.80
2022-08-07T13:25:00.081Z,27.20
2022-08-07T13:28:12.687Z,27.10
2022-08-07T13:30:40.386Z,26.80
2022-08-07T13:34:29.973Z,27.20
2022-08-07T13:36:17.749Z,27.20
2022-08-07T13:38:56.762Z,27.20
2022-08-07T13:41:41.317Z,27.50
2022-08-07T13:44:13.136Z,27.20
2022-08-07T13:46:49.550Z,26.90
2022-08-07T13:50:34.182Z,27.10
2022-08-07T13:52:32.167Z,27.40
2022-08-07T13:54:59.676Z,27.20
2022-08-07T13:57:32.202Z,27.40
2022-08-07T14:00:26.222Z,27.70
2022-08-07T14:02:59.451Z,27.80
2022-08-07T14:05:37.582Z,28.00
2022-08-07T14:08:08.823Z,27.80
2022-08-07T14:10:42.116Z,27.90
2022-08-07T14:13:18.040Z,28.00
2022-08-07T14:15:54.168Z,28.10
2022-08-07T14:18:32.840Z,28.10
2022-08-07T14:21:11.857Z,28.30
2022-08-07T14:24:03.739Z,28.30
2022-08-07T14:26:37.245Z,28.40
2022-08-07T14:30:09.807Z,28.30
2022-08-07T14:32:01.082Z,28.20
2022-08-07T14:34:31.971Z,28.10
2022-08-07T14:37:07.037Z,28.10
2022-08-07T14:40:17.391Z,27.90
2022-08-07T14:45:46.327Z,27.50
2022-08-07T14:48:21.125Z,27.40
2022-08-07T14:50:51.723Z,27.70
2022-08-07T14:54:03.667Z,27.30
2022-08-07T14:56:15.211Z,27.50
2022-08-07T14:59:01.876Z,27.80
2022-08-07T15:04:25.064Z,28.20
2022-08-07T15:06:54.877Z,28.30
2022-08-07T15:09:57.934Z,28.30
2022-08-07T15:12:25.678Z,28.30
2022-08-07T15:17:58.868Z,28.20
2022-08-07T15:20:54.583Z,28.20
2022-08-07T15:25:15.195Z,28.30
2022-08-07T15:26:22.822Z,28.50
2022-08-07T15:30:06.943Z,28.60
2022-08-07T15:34:50.534Z,28.50
2022-08-07T15:40:34.228Z,28.60
2022-08-07T15:43:53.781Z,28.40
2022-08-07T15:46:32.300Z,28.50
2022-08-07T15:49:14.495Z,28.50
2022-08-07T15:54:34.141Z,28.50
2022-08-07T15:57:03.220Z,28.50
2022-08-07T15:59:40.045Z,28.40
2022-08-07T16:02:15.686Z,28.20
2022-08-07T16:04:44.530Z,27.90
2022-08-07T16:08:33.055Z,28.00
2022-08-07T16:10:14.786Z,27.80
2022-08-07T16:12:58.146Z,27.40
2022-08-07T16:15:57.770Z,27.50
2022-08-07T16:18:52.559Z,27.70
2022-08-07T16:22:04.323Z,27.80
2022-08-07T16:24:34.616Z,27.90
2022-08-07T16:27:18.197Z,27.80
2022-08-07T16:30:30.248Z,28.00
2022-08-07T16:34:02.721Z,27.60
2022-08-07T16:36:20.586Z,27.70
2022-08-07T16:39:40.387Z,27.80
2022-08-07T16:42:55.684Z,27.80
2022-08-07T16:46:47.252Z,27.80
2022-08-07T16:50:27.931Z,27.50
2022-08-07T16:52:51.003Z,27.60
2022-08-07T16:55:08.491Z,27.50
2022-08-07T16:58:01.492Z,27.40
2022-08-07T17:00:41.887Z,27.50
2022-08-07T17:03:57.686Z,27.60
2022-08-07T17:06:30.718Z,27.60
2022-08-07T17:09:14.325Z,27.50
2022-08-07T17:12:04.680Z,27.50
2022-08-07T17:14:47.792Z,27.40
2022-08-07T17:17:44.092Z,27.40
2022-08-07T17:20:30.097Z,27.40
2022-08-07T17:23:11.452Z,27.40
2022-08-07T17:25:56.999Z,27.20
2022-08-07T17:28:35.190Z,27.20
2022-08-07T17:31:16.497Z,27.30
2022-08-07T17:34:32.609Z,27.30
2022-08-07T17:36:57.610Z,27.30
2022-08-07T17:40:03.120Z,27.10
2022-08-07T17:42:58.405Z,27.00
2022-08-07T17:45:35.087Z,26.70
2022-08-07T17:48:30.867Z,26.70
2022-08-07T17:51:03.078Z,26.70
2022-08-07T17:54:01.436Z,26.70
2022-08-07T17:56:33.695Z,26.70
2022-08-07T17:59:17.112Z,26.60
2022-08-07T18:01:57.076Z,26.60
2022-08-07T18:04:48.485Z,26.50
2022-08-07T18:07:43.815Z,26.60
2022-08-07T18:10:32.257Z,26.60
2022-08-07T18:13:20.500Z,26.60
2022-08-07T18:16:04.634Z,26.60
2022-08-07T18:21:01.721Z,26.70
2022-08-07T18:21:51.670Z,26.60
2022-08-07T18:24:34.256Z,26.70
2022-08-07T18:27:25.727Z,26.70
2022-08-07T18:30:31.225Z,26.60
2022-08-07T18:33:54.790Z,26.30
2022-08-07T18:36:35.980Z,26.40
2022-08-07T18:40:08.912Z,26.50
2022-08-07T18:42:17.258Z,26.50
2022-08-07T18:45:44.468Z,26.60
2022-08-07T18:48:00.917Z,26.60
2022-08-07T18:51:06.690Z,26.60
2022-08-07T18:53:59.252Z,26.60
2022-08-07T18:56:37.764Z,26.50
2022-08-07T18:59:58.427Z,26.50
2022-08-07T19:02:18.611Z,26.50
2022-08-07T19:05:15.093Z,26.40
2022-08-07T19:07:59.040Z,26.40
2022-08-07T19:10:49.818Z,26.40
2022-08-07T19:13:27.777Z,26.40
2022-08-07T19:16:05.167Z,26.50
2022-08-07T19:18:59.265Z,26.30
2022-08-07T19:21:47.854Z,26.30
2022-08-07T19:24:30.915Z,26.30
2022-08-07T19:28:30.034Z,26.30
2022-08-07T19:31:00.404Z,26.20
2022-08-07T19:32:59.738Z,26.20
2022-08-07T19:35:33.595Z,26.20
2022-08-07T19:40:49.592Z,25.90
2022-08-07T19:43:49.060Z,26.10
2022-08-07T19:46:15.790Z,26.00
2022-08-07T19:48:54.039Z,26.00
2022-08-07T19:51:52.708Z,25.90
2022-08-07T19:54:31.864Z,25.90
2022-08-07T19:57:51.708Z,25.90
2022-08-07T19:59:59.024Z,25.90
2022-08-07T20:02:33.368Z,25.90
2022-08-07T20:05:07.958Z,25.80
2022-08-07T20:07:47.692Z,25.70
2022-08-07T20:10:36.904Z,25.70
2022-08-07T20:13:23.092Z,25.70
2022-08-07T20:15:57.713Z,25.60
2022-08-07T20:18:32.302Z,25.60
2022-08-07T20:21:14.554Z,25.60
2022-08-07T20:23:54.314Z,25.60
2022-08-07T20:26:32.233Z,25.50
2022-08-07T20:29:10.620Z,25.50
2022-08-07T20:31:54.140Z,25.50
2022-08-07T20:34:49.422Z,25.40
2022-08-07T20:37:15.956Z,25.40
2022-08-07T20:40:02.740Z,25.30
2022-08-07T20:42:34.582Z,25.20
2022-08-07T20:45:33.751Z,25.10
2022-08-07T20:47:58.645Z,25.10
2022-08-07T20:50:30.629Z,25.10
2022-08-07T20:53:00.633Z,25.00
2022-08-07T20:55:32.324Z,25.00
2022-08-07T20:58:09.043Z,25.00
2022-08-07T21:00:44.362Z,25.00
2022-08-07T21:03:23.255Z,24.90
2022-08-07T21:05:58.381Z,24.90
2022-08-07T21:08:36.676Z,24.80
2022-08-07T21:11:12.336Z,24.80
2022-08-07T21:14:16.370Z,24.80
2022-08-07T21:16:56.415Z,24.80
2022-08-07T21:19:51.856Z,25.10
2022-08-07T21:22:28.319Z,24.70
2022-08-07T21:25:12.406Z,24.60
2022-08-07T21:28:02.019Z,24.70
2022-08-07T21:30:38.696Z,24.60
2022-08-07T21:33:16.308Z,24.70
2022-08-07T21:36:05.671Z,24.60
2022-08-07T21:38:50.322Z,24.60
2022-08-07T21:41:24.520Z,24.60
2022-08-07T21:43:58.332Z,24.50
2022-08-07T21:46:37.241Z,24.50
2022-08-07T21:49:21.136Z,24.40
2022-08-07T21:52:09.025Z,24.40
2022-08-07T21:54:56.936Z,24.40
2022-08-07T21:57:39.971Z,24.40
2022-08-07T22:00:22.627Z,24.40
2022-08-07T22:03:03.330Z,24.50
2022-08-07T22:05:45.788Z,24.60
2022-08-07T22:08:19.799Z,24.60
2022-08-07T22:10:51.767Z,24.80
2022-08-07T22:13:24.691Z,24.50
2022-08-07T22:16:39.095Z,24.40
2022-08-07T22:19:08.966Z,24.30
2022-08-07T22:22:05.198Z,24.30
2022-08-07T22:24:41.985Z,24.30
2022-08-07T22:27:20.324Z,24.20
2022-08-07T22:30:12.552Z,24.20
2022-08-07T22:32:53.976Z,24.20
2022-08-07T22:35:24.684Z,24.20
2022-08-07T22:38:24.145Z,24.20
2022-08-07T22:40:59.842Z,24.10
2022-08-07T22:43:37.380Z,24.10
2022-08-07T22:46:46.952Z,24.00
2022-08-07T22:49:51.856Z,24.00
2022-08-07T22:52:46.070Z,24.10
2022-08-07T22:55:38.125Z,24.00
2022-08-07T22:58:29.082Z,24.00
2022-08-07T23:01:16.317Z,24.00
2022-08-07T23:04:00.197Z,23.90
2022-08-07T23:06:58.664Z,23.90
2022-08-07T23:10:04.247Z,23.90
2022-08-07T23:12:48.411Z,23.90
2022-08-07T23:16:07.350Z,23.90
2022-08-07T23:18:25.831Z,23.90
2022-08-07T23:21:21.097Z,23.90
2022-08-07T23:24:18.067Z,24.00
2022-08-07T23:27:02.475Z,24.00
2022-08-07T23:30:38.189Z,24.00
2022-08-07T23:34:21.846Z,23.90
2022-08-07T23:35:53.954Z,23.80
2022-08-07T23:38:36.537Z,23.70
2022-08-07T23:41:33.374Z,23.60
2022-08-07T23:44:33.961Z,23.60
2022-08-07T23:47:42.262Z,23.50
2022-08-07T23:50:42.793Z,23.50
2022-08-07T23:53:22.861Z,23.50
2022-08-07T23:56:21.194Z,23.40
2022-08-07T23:59:00.420Z,23.30
